sensor_id;sensor_type;location;lat;lon;timestamp;pressure;altitude;pressure_sealevel;temperature;humidity
33163;BME280;29282;45.656;11.302;2023-05-14T00:00:47;98342.28;;;17.72;61.73
33163;BME280;29282;45.656;11.302;2023-05-14T00:03:12;98336.81;;;17.72;61.81
33163;BME280;29282;45.656;11.302;2023-05-14T00:05:38;98326.66;;;17.73;61.90
33163;BME280;29282;45.656;11.302;2023-05-14T00:08:03;98314.41;;;17.70;61.71
33163;BME280;29282;45.656;11.302;2023-05-14T00:10:29;98304.22;;;17.71;61.62
33163;BME280;29282;45.656;11.302;2023-05-14T00:12:54;98311.66;;;17.70;61.80
33163;BME280;29282;45.656;11.302;2023-05-14T00:15:20;98305.03;;;17.71;61.97
33163;BME280;29282;45.656;11.302;2023-05-14T00:17:46;98298.75;;;17.71;61.61
33163;BME280;29282;45.656;11.302;2023-05-14T00:20:12;98310.50;;;17.71;61.83
33163;BME280;29282;45.656;11.302;2023-05-14T00:22:38;98309.72;;;17.71;61.91
33163;BME280;29282;45.656;11.302;2023-05-14T00:25:05;98308.91;;;17.70;61.77
33163;BME280;29282;45.656;11.302;2023-05-14T00:27:31;98309.72;;;17.71;61.69
33163;BME280;29282;45.656;11.302;2023-05-14T00:29:56;98303.44;;;17.70;61.74
33163;BME280;29282;45.656;11.302;2023-05-14T00:32:22;98304.22;;;17.71;61.62
33163;BME280;29282;45.656;11.302;2023-05-14T00:34:48;98301.50;;;17.71;61.83
33163;BME280;29282;45.656;11.302;2023-05-14T00:37:14;98298.75;;;17.71;61.47
33163;BME280;29282;45.656;11.302;2023-05-14T00:39:39;98308.13;;;17.70;61.65
33163;BME280;29282;45.656;11.302;2023-05-14T00:42:05;98293.63;;;17.69;61.59
33163;BME280;29282;45.656;11.302;2023-05-14T00:44:31;98288.94;;;17.70;61.59
33163;BME280;29282;45.656;11.302;2023-05-14T00:46:57;98289.72;;;17.70;61.68
33163;BME280;29282;45.656;11.302;2023-05-14T00:49:23;98281.84;;;17.69;61.71
33163;BME280;29282;45.656;11.302;2023-05-14T00:51:49;98285.41;;;17.69;61.55
33163;BME280;29282;45.656;11.302;2023-05-14T00:54:16;98281.06;;;17.68;61.68
33163;BME280;29282;45.656;11.302;2023-05-14T00:56:45;98279.91;;;17.69;61.60
33163;BME280;29282;45.656;11.302;2023-05-14T00:59:10;98272.50;;;17.70;61.63
33163;BME280;29282;45.656;11.302;2023-05-14T01:01:36;98273.63;;;17.69;61.44
33163;BME280;29282;45.656;11.302;2023-05-14T01:04:02;98280.72;;;17.70;61.43
33163;BME280;29282;45.656;11.302;2023-05-14T01:09:16;98261.88;;;17.68;61.52
33163;BME280;29282;45.656;11.302;2023-05-14T01:17:01;98253.66;;;17.68;61.50
33163;BME280;29282;45.656;11.302;2023-05-14T01:19:39;98253.66;;;17.68;61.43
33163;BME280;29282;45.656;11.302;2023-05-14T01:22:05;98250.09;;;17.68;61.66
33163;BME280;29282;45.656;11.302;2023-05-14T01:24:31;98250.09;;;17.68;61.55
33163;BME280;29282;45.656;11.302;2023-05-14T01:27:16;98252.03;;;17.67;61.44
33163;BME280;29282;45.656;11.302;2023-05-14T01:29:55;98250.09;;;17.68;61.43
33163;BME280;29282;45.656;11.302;2023-05-14T01:32:24;98239.13;;;17.68;61.65
33163;BME280;29282;45.656;11.302;2023-05-14T01:34:51;98242.69;;;17.68;61.45
33163;BME280;29282;45.656;11.302;2023-05-14T01:37:17;98241.88;;;17.68;61.65
33163;BME280;29282;45.656;11.302;2023-05-14T01:39:44;98239.97;;;17.68;61.55
33163;BME280;29282;45.656;11.302;2023-05-14T01:42:10;98235.59;;;17.67;61.49
33163;BME280;29282;45.656;11.302;2023-05-14T01:44:35;98228.53;;;17.66;61.44
33163;BME280;29282;45.656;11.302;2023-05-14T01:47:01;98236.75;;;17.66;61.56
33163;BME280;29282;45.656;11.302;2023-05-14T01:49:26;98224.97;;;17.66;61.53
33163;BME280;29282;45.656;11.302;2023-05-14T01:51:52;98225.78;;;17.66;61.56
33163;BME280;29282;45.656;11.302;2023-05-14T01:54:17;98225.78;;;17.66;61.47
33163;BME280;29282;45.656;11.302;2023-05-14T01:56:43;98220.28;;;17.66;61.45
33163;BME280;29282;45.656;11.302;2023-05-14T01:59:08;98218.69;;;17.65;61.59
33163;BME280;29282;45.656;11.302;2023-05-14T02:01:34;98216.75;;;17.66;61.36
33163;BME280;29282;45.656;11.302;2023-05-14T02:03:59;98214.81;;;17.66;61.44
33163;BME280;29282;45.656;11.302;2023-05-14T02:06:25;98208.53;;;17.66;61.43
33163;BME280;29282;45.656;11.302;2023-05-14T02:08:51;98215.97;;;17.65;61.55
33163;BME280;29282;45.656;11.302;2023-05-14T02:11:16;98205.81;;;17.66;61.36
33163;BME280;29282;45.656;11.302;2023-05-14T02:13:42;98202.25;;;17.65;61.36
33163;BME280;29282;45.656;11.302;2023-05-14T02:16:08;98199.53;;;17.65;61.55
33163;BME280;29282;45.656;11.302;2023-05-14T02:18:36;98194.03;;;17.65;61.49
33163;BME280;29282;45.656;11.302;2023-05-14T02:21:02;98188.56;;;17.65;61.58
33163;BME280;29282;45.656;11.302;2023-05-14T02:23:30;98188.56;;;17.65;61.47
33163;BME280;29282;45.656;11.302;2023-05-14T02:25:56;98187.72;;;17.65;61.49
33163;BME280;29282;45.656;11.302;2023-05-14T02:28:21;98183.09;;;17.65;61.45
33163;BME280;29282;45.656;11.302;2023-05-14T02:30:47;98183.41;;;17.64;61.45
33163;BME280;29282;45.656;11.302;2023-05-14T02:33:12;98185.00;;;17.65;61.41
33163;BME280;29282;45.656;11.302;2023-05-14T02:35:37;98182.25;;;17.65;61.49
33163;BME280;29282;45.656;11.302;2023-05-14T02:38:03;98174.88;;;17.65;61.35
33163;BME280;29282;45.656;11.302;2023-05-14T02:40:29;98178.72;;;17.64;61.35
33163;BME280;29282;45.656;11.302;2023-05-14T02:42:54;98175.97;;;17.64;61.49
33163;BME280;29282;45.656;11.302;2023-05-14T02:45:19;98175.19;;;17.64;61.34
33163;BME280;29282;45.656;11.302;2023-05-14T02:47:45;98177.91;;;17.64;61.49
33163;BME280;29282;45.656;11.302;2023-05-14T02:50:11;98177.91;;;17.64;61.29
33163;BME280;29282;45.656;11.302;2023-05-14T02:52:36;98175.19;;;17.64;61.34
33163;BME280;29282;45.656;11.302;2023-05-14T02:55:02;98166.97;;;17.64;61.37
33163;BME280;29282;45.656;11.302;2023-05-14T02:57:27;98166.16;;;17.63;61.31
33163;BME280;29282;45.656;11.302;2023-05-14T02:59:53;98168.91;;;17.63;61.39
33163;BME280;29282;45.656;11.302;2023-05-14T03:02:18;98169.69;;;17.64;61.40
33163;BME280;29282;45.656;11.302;2023-05-14T03:04:44;98177.13;;;17.63;61.45
33163;BME280;29282;45.656;11.302;2023-05-14T03:07:10;98174.38;;;17.63;61.43
33163;BME280;29282;45.656;11.302;2023-05-14T03:09:36;98170.03;;;17.62;61.35
33163;BME280;29282;45.656;11.302;2023-05-14T03:12:02;98166.16;;;17.63;61.15
33163;BME280;29282;45.656;11.302;2023-05-14T03:14:27;98155.19;;;17.63;61.41
33163;BME280;29282;45.656;11.302;2023-05-14T03:16:53;98165.38;;;17.63;61.23
33163;BME280;29282;45.656;11.302;2023-05-14T03:19:18;98166.50;;;17.61;61.19
33163;BME280;29282;45.656;11.302;2023-05-14T03:21:44;98166.50;;;17.61;61.43
33163;BME280;29282;45.656;11.302;2023-05-14T03:24:10;98167.31;;;17.62;61.47
33163;BME280;29282;45.656;11.302;2023-05-14T03:26:38;98159.88;;;17.63;61.41
33163;BME280;29282;45.656;11.302;2023-05-14T03:29:03;98153.59;;;17.62;61.20
33163;BME280;29282;45.656;11.302;2023-05-14T03:31:29;98157.47;;;17.61;61.48
33163;BME280;29282;45.656;11.302;2023-05-14T03:33:55;98155.56;;;17.61;61.54
33163;BME280;29282;45.656;11.302;2023-05-14T03:36:21;98153.94;;;17.60;61.29
33163;BME280;29282;45.656;11.302;2023-05-14T03:38:46;98147.66;;;17.60;61.28
33163;BME280;29282;45.656;11.302;2023-05-14T03:41:12;98145.72;;;17.60;61.31
33163;BME280;29282;45.656;11.302;2023-05-14T03:43:37;98147.66;;;17.60;61.37
33163;BME280;29282;45.656;11.302;2023-05-14T03:46:03;98139.44;;;17.60;61.23
33163;BME280;29282;45.656;11.302;2023-05-14T03:48:28;98145.72;;;17.60;61.37
33163;BME280;29282;45.656;11.302;2023-05-14T03:50:54;98142.16;;;17.60;61.38
33163;BME280;29282;45.656;11.302;2023-05-14T03:53:19;98144.91;;;17.60;61.28
33163;BME280;29282;45.656;11.302;2023-05-14T03:55:45;98150.38;;;17.60;61.35
33163;BME280;29282;45.656;11.302;2023-05-14T03:58:11;98145.72;;;17.60;61.31
33163;BME280;29282;45.656;11.302;2023-05-14T04:00:41;98135.88;;;17.59;61.31
33163;BME280;29282;45.656;11.302;2023-05-14T04:03:07;98137.84;;;17.59;61.32
33163;BME280;29282;45.656;11.302;2023-05-14T04:05:33;98135.88;;;17.59;61.41
33163;BME280;29282;45.656;11.302;2023-05-14T04:07:59;98128.81;;;17.58;61.14
33163;BME280;29282;45.656;11.302;2023-05-14T04:10:25;98129.63;;;17.59;61.11
33163;BME280;29282;45.656;11.302;2023-05-14T04:12:50;98132.34;;;17.59;61.31
33163;BME280;29282;45.656;11.302;2023-05-14T04:15:16;98130.41;;;17.59;61.28
33163;BME280;29282;45.656;11.302;2023-05-14T04:17:41;98132.34;;;17.59;61.21
33163;BME280;29282;45.656;11.302;2023-05-14T04:20:07;98126.06;;;17.58;61.29
33163;BME280;29282;45.656;11.302;2023-05-14T04:22:33;98127.69;;;17.59;61.37
33163;BME280;29282;45.656;11.302;2023-05-14T04:24:58;98121.41;;;17.59;61.35
33163;BME280;29282;45.656;11.302;2023-05-14T04:27:24;98130.41;;;17.59;61.38
33163;BME280;29282;45.656;11.302;2023-05-14T04:29:50;98115.91;;;17.59;61.15
33163;BME280;29282;45.656;11.302;2023-05-14T04:32:16;98112.38;;;17.58;61.06
33163;BME280;29282;45.656;11.302;2023-05-14T04:34:42;98121.41;;;17.59;61.21
33163;BME280;29282;45.656;11.302;2023-05-14T04:37:08;98118.66;;;17.59;61.31
33163;BME280;29282;45.656;11.302;2023-05-14T04:39:34;98111.25;;;17.59;61.21
33163;BME280;29282;45.656;11.302;2023-05-14T04:41:59;98115.13;;;17.58;61.33
33163;BME280;29282;45.656;11.302;2023-05-14T04:44:25;98109.63;;;17.58;61.11
33163;BME280;29282;45.656;11.302;2023-05-14T04:46:50;98117.03;;;17.58;61.13
33163;BME280;29282;45.656;11.302;2023-05-14T04:49:17;98111.25;;;17.59;61.31
33163;BME280;29282;45.656;11.302;2023-05-14T04:51:43;98120.59;;;17.58;61.06
33163;BME280;29282;45.656;11.302;2023-05-14T04:54:08;98117.50;;;17.60;61.05
33163;BME280;29282;45.656;11.302;2023-05-14T04:56:34;98119.47;;;17.59;61.06
33163;BME280;29282;45.656;11.302;2023-05-14T04:58:59;98113.97;;;17.59;61.07
33163;BME280;29282;45.656;11.302;2023-05-14T05:01:25;98120.59;;;17.58;61.14
33163;BME280;29282;45.656;11.302;2023-05-14T05:03:50;98115.91;;;17.59;61.43
33163;BME280;29282;45.656;11.302;2023-05-14T05:06:16;98125.25;;;17.58;60.98
33163;BME280;29282;45.656;11.302;2023-05-14T05:08:42;98123.34;;;17.58;61.02
33163;BME280;29282;45.656;11.302;2023-05-14T05:11:07;98127.19;;;17.57;61.02
33163;BME280;29282;45.656;11.302;2023-05-14T05:13:33;98123.66;;;17.57;60.93
33163;BME280;29282;45.656;11.302;2023-05-14T05:15:58;98127.69;;;17.59;61.05
33163;BME280;29282;45.656;11.302;2023-05-14T05:18:24;98129.63;;;17.59;61.15
33163;BME280;29282;45.656;11.302;2023-05-14T05:20:49;98136.22;;;17.58;61.07
33163;BME280;29282;45.656;11.302;2023-05-14T05:23:15;98134.28;;;17.58;61.26
33163;BME280;29282;45.656;11.302;2023-05-14T05:25:41;98134.28;;;17.58;61.14
33163;BME280;29282;45.656;11.302;2023-05-14T05:28:06;98135.09;;;17.59;61.05
33163;BME280;29282;45.656;11.302;2023-05-14T05:30:32;98142.50;;;17.58;60.94
33163;BME280;29282;45.656;11.302;2023-05-14T05:32:58;98144.44;;;17.58;60.86
33163;BME280;29282;45.656;11.302;2023-05-14T05:35:23;98140.88;;;17.57;61.03
33163;BME280;29282;45.656;11.302;2023-05-14T05:37:49;98142.84;;;17.57;61.03
33163;BME280;29282;45.656;11.302;2023-05-14T05:40:17;98144.44;;;17.58;61.23
33163;BME280;29282;45.656;11.302;2023-05-14T05:42:43;98140.09;;;17.57;61.07
33163;BME280;29282;45.656;11.302;2023-05-14T05:45:09;98139.28;;;17.56;61.06
33163;BME280;29282;45.656;11.302;2023-05-14T05:47:34;98131.88;;;17.57;61.20
33163;BME280;29282;45.656;11.302;2023-05-14T05:50:00;98134.63;;;17.57;61.20
33163;BME280;29282;45.656;11.302;2023-05-14T05:52:25;98129.13;;;17.57;61.14
33163;BME280;29282;45.656;11.302;2023-05-14T05:54:51;98129.13;;;17.57;61.08
33163;BME280;29282;45.656;11.302;2023-05-14T05:57:16;98127.53;;;17.56;61.04
33163;BME280;29282;45.656;11.302;2023-05-14T05:59:42;98127.53;;;17.56;61.21
33163;BME280;29282;45.656;11.302;2023-05-14T06:02:07;98127.53;;;17.56;61.12
33163;BME280;29282;45.656;11.302;2023-05-14T06:04:33;98127.53;;;17.56;60.98
33163;BME280;29282;45.656;11.302;2023-05-14T06:06:58;98123.66;;;17.57;60.96
33163;BME280;29282;45.656;11.302;2023-05-14T06:09:24;98121.25;;;17.55;61.05
33163;BME280;29282;45.656;11.302;2023-05-14T06:11:49;98118.19;;;17.57;61.23
33163;BME280;29282;45.656;11.302;2023-05-14T06:14:15;98120.91;;;17.57;61.12
33163;BME280;29282;45.656;11.302;2023-05-14T06:16:40;98115.44;;;17.57;61.02
33163;BME280;29282;45.656;11.302;2023-05-14T06:19:06;98114.63;;;17.56;61.08
33163;BME280;29282;45.656;11.302;2023-05-14T06:21:32;98109.16;;;17.56;60.98
33163;BME280;29282;45.656;11.302;2023-05-14T06:23:58;98112.69;;;17.57;61.03
33163;BME280;29282;45.656;11.302;2023-05-14T06:26:23;98109.97;;;17.57;60.90
33163;BME280;29282;45.656;11.302;2023-05-14T06:28:50;98107.22;;;17.57;60.95
33163;BME280;29282;45.656;11.302;2023-05-14T06:31:15;98104.47;;;17.57;61.03
33163;BME280;29282;45.656;11.302;2023-05-14T06:33:43;98102.88;;;17.56;60.91
33163;BME280;29282;45.656;11.302;2023-05-14T06:36:09;98104.47;;;17.57;60.74
33163;BME280;29282;45.656;11.302;2023-05-14T06:38:35;98106.06;;;17.58;61.00
33163;BME280;29282;45.656;11.302;2023-05-14T06:41:00;98105.28;;;17.57;60.84
33163;BME280;29282;45.656;11.302;2023-05-14T06:43:26;98094.66;;;17.56;60.93
33163;BME280;29282;45.656;11.302;2023-05-14T06:45:52;98099.78;;;17.57;60.95
33163;BME280;29282;45.656;11.302;2023-05-14T06:48:18;98096.25;;;17.57;61.07
33163;BME280;29282;45.656;11.302;2023-05-14T06:50:47;98095.47;;;17.56;60.87
33163;BME280;29282;45.656;11.302;2023-05-14T06:53:15;98090.78;;;17.57;60.89
33163;BME280;29282;45.656;11.302;2023-05-14T06:55:41;98096.25;;;17.57;61.05
33163;BME280;29282;45.656;11.302;2023-05-14T06:58:07;98092.72;;;17.56;60.94
33163;BME280;29282;45.656;11.302;2023-05-14T07:00:32;98092.72;;;17.56;60.87
33163;BME280;29282;45.656;11.302;2023-05-14T07:02:58;98092.72;;;17.56;60.91
33163;BME280;29282;45.656;11.302;2023-05-14T07:05:24;98097.06;;;17.57;61.08
33163;BME280;29282;45.656;11.302;2023-05-14T07:07:49;98090.00;;;17.56;60.98
33163;BME280;29282;45.656;11.302;2023-05-14T07:10:15;98080.63;;;17.57;60.98
33163;BME280;29282;45.656;11.302;2023-05-14T07:12:43;98081.78;;;17.56;60.98
33163;BME280;29282;45.656;11.302;2023-05-14T07:15:09;98075.16;;;17.57;61.06
33163;BME280;29282;45.656;11.302;2023-05-14T07:17:36;98079.81;;;17.57;60.80
33163;BME280;29282;45.656;11.302;2023-05-14T07:20:02;98079.81;;;17.57;60.99
33163;BME280;29282;45.656;11.302;2023-05-14T07:22:28;98081.41;;;17.58;60.97
33163;BME280;29282;45.656;11.302;2023-05-14T07:24:53;98079.81;;;17.57;60.89
33163;BME280;29282;45.656;11.302;2023-05-14T07:27:22;98075.16;;;17.57;60.90
33163;BME280;29282;45.656;11.302;2023-05-14T07:29:48;98072.41;;;17.57;61.08
33163;BME280;29282;45.656;11.302;2023-05-14T07:32:14;98059.19;;;17.59;61.00
33163;BME280;29282;45.656;11.302;2023-05-14T07:34:40;98050.16;;;17.59;60.85
33163;BME280;29282;45.656;11.302;2023-05-14T07:37:05;98057.72;;;17.62;61.01
33163;BME280;29282;45.656;11.302;2023-05-14T07:39:31;98046.41;;;17.64;60.89
33163;BME280;29282;45.656;11.302;2023-05-14T07:41:56;98053.16;;;17.66;60.90
33163;BME280;29282;45.656;11.302;2023-05-14T07:44:22;98053.66;;;17.68;60.96
33163;BME280;29282;45.656;11.302;2023-05-14T07:46:47;98048.97;;;17.69;61.08
33163;BME280;29282;45.656;11.302;2023-05-14T07:49:13;98040.41;;;17.70;60.94
33163;BME280;29282;45.656;11.302;2023-05-14T07:51:38;98043.63;;;17.72;61.03
33163;BME280;29282;45.656;11.302;2023-05-14T07:54:04;98031.03;;;17.71;61.00
33163;BME280;29282;45.656;11.302;2023-05-14T07:56:30;98037.34;;;17.72;60.85
33163;BME280;29282;45.656;11.302;2023-05-14T07:58:55;98031.50;;;17.73;60.86
33163;BME280;29282;45.656;11.302;2023-05-14T08:01:21;98027.63;;;17.74;60.91
33163;BME280;29282;45.656;11.302;2023-05-14T08:03:47;98036.66;;;17.75;60.75
33163;BME280;29282;45.656;11.302;2023-05-14T08:06:12;98036.34;;;17.76;60.98
33163;BME280;29282;45.656;11.302;2023-05-14T08:08:38;98035.19;;;17.77;60.73
33163;BME280;29282;45.656;11.302;2023-05-14T08:11:03;98029.72;;;17.77;60.82
33163;BME280;29282;45.656;11.302;2023-05-14T08:13:29;98025.88;;;17.78;60.46
33163;BME280;29282;45.656;11.302;2023-05-14T08:15:55;98025.88;;;17.78;60.73
33163;BME280;29282;45.656;11.302;2023-05-14T08:18:20;98032.94;;;17.79;60.89
33163;BME280;29282;45.656;11.302;2023-05-14T08:20:46;98030.19;;;17.79;60.97
33163;BME280;29282;45.656;11.302;2023-05-14T08:23:12;98031.78;;;17.80;61.01
33163;BME280;29282;45.656;11.302;2023-05-14T08:25:38;98029.06;;;17.80;60.71
33163;BME280;29282;45.656;11.302;2023-05-14T08:28:04;98032.59;;;17.81;60.82
33163;BME280;29282;45.656;11.302;2023-05-14T08:30:29;98032.59;;;17.81;61.00
33163;BME280;29282;45.656;11.302;2023-05-14T08:32:55;98029.06;;;17.80;61.00
33163;BME280;29282;45.656;11.302;2023-05-14T08:35:20;98035.34;;;17.81;60.80
33163;BME280;29282;45.656;11.302;2023-05-14T08:37:46;98030.69;;;17.81;60.86
33163;BME280;29282;45.656;11.302;2023-05-14T08:40:12;98038.56;;;17.83;61.22
33163;BME280;29282;45.656;11.302;2023-05-14T08:42:38;98028.06;;;17.85;61.54
33163;BME280;29282;45.656;11.302;2023-05-14T08:45:19;98032.72;;;17.84;61.44
33163;BME280;29282;45.656;11.302;2023-05-14T08:47:47;98027.22;;;17.84;61.45
33163;BME280;29282;45.656;11.302;2023-05-14T08:50:14;98025.78;;;17.87;61.64
33163;BME280;29282;45.656;11.302;2023-05-14T08:52:40;98028.50;;;17.87;61.55
33163;BME280;29282;45.656;11.302;2023-05-14T08:55:06;98028.06;;;17.85;61.53
33163;BME280;29282;45.656;11.302;2023-05-14T08:57:33;98024.50;;;17.84;61.75
33163;BME280;29282;45.656;11.302;2023-05-14T08:59:59;98016.97;;;17.81;61.34
33163;BME280;29282;45.656;11.302;2023-05-14T09:02:29;98015.81;;;17.82;61.40
33163;BME280;29282;45.656;11.302;2023-05-14T09:04:59;98008.75;;;17.81;61.65
33163;BME280;29282;45.656;11.302;2023-05-14T09:07:25;98012.28;;;17.82;61.71
33163;BME280;29282;45.656;11.302;2023-05-14T09:09:51;98008.75;;;17.81;61.57
33163;BME280;29282;45.656;11.302;2023-05-14T09:12:17;98006.34;;;17.80;61.46
33163;BME280;29282;45.656;11.302;2023-05-14T09:14:44;98001.66;;;17.80;61.57
33163;BME280;29282;45.656;11.302;2023-05-14T09:17:09;97997.31;;;17.79;61.71
33163;BME280;29282;45.656;11.302;2023-05-14T09:19:41;97996.16;;;17.80;61.80
33163;BME280;29282;45.656;11.302;2023-05-14T09:22:11;98000.84;;;17.80;61.70
33163;BME280;29282;45.656;11.302;2023-05-14T09:24:40;97997.31;;;17.79;61.80
33163;BME280;29282;45.656;11.302;2023-05-14T09:27:07;97991.84;;;17.79;61.66
33163;BME280;29282;45.656;11.302;2023-05-14T09:29:35;97987.50;;;17.78;61.50
33163;BME280;29282;45.656;11.302;2023-05-14T09:32:01;97995.38;;;17.80;61.98
33163;BME280;29282;45.656;11.302;2023-05-14T09:34:33;97994.56;;;17.79;61.64
33163;BME280;29282;45.656;11.302;2023-05-14T09:37:04;97990.69;;;17.80;61.90
33163;BME280;29282;45.656;11.302;2023-05-14T09:39:31;97983.25;;;17.81;62.15
33163;BME280;29282;45.656;11.302;2023-05-14T09:41:57;97991.16;;;17.82;61.89
33163;BME280;29282;45.656;11.302;2023-05-14T09:44:23;97983.38;;;17.84;62.08
33163;BME280;29282;45.656;11.302;2023-05-14T09:46:49;97983.38;;;17.84;62.06
33163;BME280;29282;45.656;11.302;2023-05-14T09:49:15;97974.38;;;17.84;62.18
33163;BME280;29282;45.656;11.302;2023-05-14T09:51:41;97974.38;;;17.84;62.12
33163;BME280;29282;45.656;11.302;2023-05-14T09:54:07;97966.28;;;17.88;62.24
33163;BME280;29282;45.656;11.302;2023-05-14T09:56:34;97974.16;;;17.89;62.19
33163;BME280;29282;45.656;11.302;2023-05-14T09:59:01;97969.47;;;17.90;62.33
33163;BME280;29282;45.656;11.302;2023-05-14T10:01:28;97962.06;;;17.90;62.35
33163;BME280;29282;45.656;11.302;2023-05-14T10:03:54;97965.94;;;17.89;62.11
33163;BME280;29282;45.656;11.302;2023-05-14T10:06:23;97958.53;;;17.90;62.32
33163;BME280;29282;45.656;11.302;2023-05-14T10:08:53;97956.94;;;17.89;62.35
33163;BME280;29282;45.656;11.302;2023-05-14T10:11:23;97954.19;;;17.89;61.88
33163;BME280;29282;45.656;11.302;2023-05-14T10:16:33;97947.56;;;17.90;62.09
33163;BME280;29282;45.656;11.302;2023-05-14T10:19:20;97946.75;;;17.89;62.16
33163;BME280;29282;45.656;11.302;2023-05-14T10:21:54;97956.56;;;17.90;62.32
33163;BME280;29282;45.656;11.302;2023-05-14T10:24:21;97951.09;;;17.90;62.13
33163;BME280;29282;45.656;11.302;2023-05-14T10:26:47;97956.56;;;17.90;62.00
33163;BME280;29282;45.656;11.302;2023-05-14T10:29:13;97944.81;;;17.90;61.91
33163;BME280;29282;45.656;11.302;2023-05-14T10:31:54;97949.50;;;17.89;61.99
33163;BME280;29282;45.656;11.302;2023-05-14T10:34:38;97954.63;;;17.91;62.14
33163;BME280;29282;45.656;11.302;2023-05-14T10:37:19;97951.91;;;17.91;62.14
33163;BME280;29282;45.656;11.302;2023-05-14T10:42:24;97948.34;;;17.90;61.99
33163;BME280;29282;45.656;11.302;2023-05-14T10:44:56;97945.63;;;17.90;61.91
33163;BME280;29282;45.656;11.302;2023-05-14T10:47:26;97946.75;;;17.89;61.99
33163;BME280;29282;45.656;11.302;2023-05-14T10:49:56;97945.63;;;17.90;62.06
33163;BME280;29282;45.656;11.302;2023-05-14T10:52:22;97948.03;;;17.92;61.95
33163;BME280;29282;45.656;11.302;2023-05-14T10:54:49;97942.88;;;17.90;62.00
33163;BME280;29282;45.656;11.302;2023-05-14T10:57:21;97934.78;;;17.94;62.12
33163;BME280;29282;45.656;11.302;2023-05-14T10:59:52;97938.78;;;17.96;61.95
33163;BME280;29282;45.656;11.302;2023-05-14T11:02:25;97931.72;;;17.95;62.03
33163;BME280;29282;45.656;11.302;2023-05-14T11:04:53;97933.19;;;17.93;62.20
33163;BME280;29282;45.656;11.302;2023-05-14T11:07:23;97933.97;;;17.93;61.85
33163;BME280;29282;45.656;11.302;2023-05-14T11:09:52;97932.38;;;17.92;61.98
33163;BME280;29282;45.656;11.302;2023-05-14T11:12:18;97934.31;;;17.92;61.76
33163;BME280;29282;45.656;11.302;2023-05-14T11:14:45;97922.22;;;17.93;62.12
33163;BME280;29282;45.656;11.302;2023-05-14T11:17:14;97929.66;;;17.92;62.09
33163;BME280;29282;45.656;11.302;2023-05-14T11:19:42;97929.66;;;17.92;62.01
33163;BME280;29282;45.656;11.302;2023-05-14T11:22:08;97921.41;;;17.92;62.12
33163;BME280;29282;45.656;11.302;2023-05-14T11:24:34;97922.22;;;17.93;62.12
33163;BME280;29282;45.656;11.302;2023-05-14T11:26:59;97927.69;;;17.93;62.08
33163;BME280;29282;45.656;11.302;2023-05-14T11:29:25;97925.28;;;17.91;62.12
33163;BME280;29282;45.656;11.302;2023-05-14T11:31:50;97921.41;;;17.92;62.13
33163;BME280;29282;45.656;11.302;2023-05-14T11:34:16;97930.44;;;17.93;62.14
33163;BME280;29282;45.656;11.302;2023-05-14T11:36:42;97920.28;;;17.93;61.87
33163;BME280;29282;45.656;11.302;2023-05-14T11:39:07;97923.00;;;17.93;62.21
33163;BME280;29282;45.656;11.302;2023-05-14T11:41:33;97915.94;;;17.92;62.11
33163;BME280;29282;45.656;11.302;2023-05-14T11:43:59;97918.31;;;17.94;62.25
33163;BME280;29282;45.656;11.302;2023-05-14T11:46:24;97912.84;;;17.94;62.11
33163;BME280;29282;45.656;11.302;2023-05-14T11:48:50;97910.09;;;17.94;62.21
33163;BME280;29282;45.656;11.302;2023-05-14T11:51:15;97914.78;;;17.93;62.20
33163;BME280;29282;45.656;11.302;2023-05-14T11:53:41;97912.84;;;17.94;61.81
33163;BME280;29282;45.656;11.302;2023-05-14T11:56:06;97908.97;;;17.95;61.90
33163;BME280;29282;45.656;11.302;2023-05-14T11:58:32;97902.22;;;17.92;61.92
33163;BME280;29282;45.656;11.302;2023-05-14T12:00:58;97901.88;;;17.94;62.01
33163;BME280;29282;45.656;11.302;2023-05-14T12:03:24;97902.69;;;17.94;61.92
33163;BME280;29282;45.656;11.302;2023-05-14T12:06:08;97901.88;;;17.94;62.17
33163;BME280;29282;45.656;11.302;2023-05-14T12:08:34;97897.19;;;17.94;62.06
33163;BME280;29282;45.656;11.302;2023-05-14T12:11:02;97897.66;;;17.96;62.11
33163;BME280;29282;45.656;11.302;2023-05-14T12:13:31;97898.03;;;17.95;62.13
33163;BME280;29282;45.656;11.302;2023-05-14T12:15:58;97896.06;;;17.95;61.91
33163;BME280;29282;45.656;11.302;2023-05-14T12:18:27;97896.06;;;17.95;62.29
33163;BME280;29282;45.656;11.302;2023-05-14T12:20:52;97900.75;;;17.95;62.18
33163;BME280;29282;45.656;11.302;2023-05-14T12:23:31;97880.44;;;17.96;62.00
33163;BME280;29282;45.656;11.302;2023-05-14T12:26:01;97884.75;;;17.97;62.21
33163;BME280;29282;45.656;11.302;2023-05-14T12:28:27;97879.28;;;17.97;61.80
33163;BME280;29282;45.656;11.302;2023-05-14T12:30:57;97895.72;;;17.97;62.05
33163;BME280;29282;45.656;11.302;2023-05-14T12:33:22;97881.56;;;17.95;62.11
33163;BME280;29282;45.656;11.302;2023-05-14T12:35:54;97880.44;;;17.96;62.16
33163;BME280;29282;45.656;11.302;2023-05-14T12:38:26;97880.44;;;17.96;61.98
33163;BME280;29282;45.656;11.302;2023-05-14T12:40:52;97874.47;;;17.94;61.92
33163;BME280;29282;45.656;11.302;2023-05-14T12:43:18;97876.41;;;17.93;61.96
33163;BME280;29282;45.656;11.302;2023-05-14T12:45:44;97874.47;;;17.94;61.87
33163;BME280;29282;45.656;11.302;2023-05-14T12:48:10;97868.19;;;17.93;61.84
33163;BME280;29282;45.656;11.302;2023-05-14T12:50:37;97883.50;;;17.94;61.82
33163;BME280;29282;45.656;11.302;2023-05-14T12:53:03;97887.38;;;17.93;61.84
33163;BME280;29282;45.656;11.302;2023-05-14T12:55:28;97885.78;;;17.92;61.76
33163;BME280;29282;45.656;11.302;2023-05-14T12:57:54;97872.09;;;17.92;61.84
33163;BME280;29282;45.656;11.302;2023-05-14T13:00:20;97874.81;;;17.92;61.83